createdAt,value
2022-08-23T00:00:13.191Z,93864.63
2022-08-23T00:02:43.373Z,93865.41
2022-08-23T00:05:11.819Z,93874.75
2022-08-23T00:07:43.689Z,93875.22
2022-08-23T00:10:14.184Z,93871.47
2022-08-23T00:12:43.370Z,93884.47
2022-08-23T00:15:14.540Z,93879.13
2022-08-23T00:17:43.901Z,93881.94
2022-08-23T00:20:15.863Z,93876.41
2022-08-23T00:22:45.644Z,93872.13
2022-08-23T00:25:15.388Z,93873.78
2022-08-23T00:27:43.583Z,93873.53
2022-08-23T00:30:14.670Z,93872.13
2022-08-23T00:32:43.895Z,93873.97
2022-08-23T00:35:27.153Z,93868.88
2022-08-23T00:38:31.740Z,93877.16
2022-08-23T00:40:51.334Z,93877.25
2022-08-23T00:43:41.344Z,93874.03
2022-08-23T00:46:34.480Z,93870.06
2022-08-23T00:49:05.573Z,93876.84
2022-08-23T00:51:50.728Z,93876.84
2022-08-23T00:54:24.680Z,93871.81
2022-08-23T00:56:54.049Z,93873.72
2022-08-23T00:59:22.164Z,93875.31
2022-08-23T01:01:50.525Z,93883.69
2022-08-23T01:04:19.235Z,93876.84
2022-08-23T01:06:52.989Z,93878.91
2022-08-23T01:09:23.741Z,93871.00
2022-08-23T01:11:58.581Z,93877.00
2022-08-23T01:14:31.181Z,93880.09
2022-08-23T01:17:05.674Z,93879.38
2022-08-23T01:19:37.308Z,93875.72
2022-08-23T01:22:12.292Z,93882.25
2022-08-23T01:25:07.091Z,93880.66
2022-08-23T01:27:33.156Z,93882.97
2022-08-23T01:30:01.403Z,93880.78
2022-08-23T01:32:29.966Z,93875.13
2022-08-23T01:34:58.052Z,93874.97
2022-08-23T01:37:26.152Z,93875.63
2022-08-23T01:39:55.601Z,93875.22
2022-08-23T01:42:23.713Z,93882.09
2022-08-23T01:44:51.783Z,93891.34
2022-08-23T01:47:19.872Z,93887.69
2022-08-23T01:49:48.000Z,93891.81
2022-08-23T01:52:17.296Z,93890.16
2022-08-23T01:54:45.366Z,93880.66
2022-08-23T01:57:15.135Z,93883.78
2022-08-23T01:59:45.062Z,93884.22
2022-08-23T02:02:13.080Z,93877.84
2022-08-23T02:04:41.147Z,93867.25
2022-08-23T02:07:09.294Z,93879.72
2022-08-23T02:09:37.628Z,93880.50
2022-08-23T02:12:06.072Z,93869.09
2022-08-23T02:14:37.239Z,93887.03
2022-08-23T02:17:09.310Z,93879.84
2022-08-23T02:19:40.149Z,93879.84
2022-08-23T02:22:10.289Z,93874.75
2022-08-23T02:24:42.021Z,93872.91
2022-08-23T02:27:10.777Z,93865.72
2022-08-23T02:29:40.370Z,93860.72
2022-08-23T02:32:14.262Z,93863.66
2022-08-23T02:34:44.173Z,93860.81
2022-08-23T02:37:19.148Z,93865.34
2022-08-23T02:39:47.284Z,93866.06
2022-08-23T02:42:15.471Z,93871.41
2022-08-23T02:44:45.173Z,93880.50
2022-08-23T02:47:13.219Z,93876.19
2022-08-23T02:49:41.352Z,93880.66
2022-08-23T02:52:09.624Z,93867.75
2022-08-23T02:54:37.861Z,93872.69
2022-08-23T02:57:06.606Z,93871.16
2022-08-23T02:59:35.439Z,93875.97
2022-08-23T03:02:05.009Z,93877.66
2022-08-23T03:04:33.166Z,93876.28
2022-08-23T03:07:01.359Z,93871.81
2022-08-23T03:09:29.549Z,93875.63
2022-08-23T03:11:57.644Z,93872.13
2022-08-23T03:14:27.651Z,93873.09
2022-08-23T03:16:57.439Z,93865.69
2022-08-23T03:19:27.914Z,93871.16
2022-08-23T03:21:56.006Z,93869.19
2022-08-23T03:24:24.072Z,93867.13
2022-08-23T03:26:52.368Z,93864.69
2022-08-23T03:29:20.704Z,93862.25
2022-08-23T03:31:48.791Z,93866.31
2022-08-23T03:34:16.892Z,93879.13
2022-08-23T03:36:46.364Z,93871.03
2022-08-23T03:39:14.966Z,93870.44
2022-08-23T03:41:42.974Z,93883.38
2022-08-23T03:44:10.988Z,93892.63
2022-08-23T03:46:39.212Z,93889.97
2022-08-23T03:49:07.365Z,93903.63
2022-08-23T03:51:35.908Z,93900.19
2022-08-23T03:54:05.730Z,93910.63
2022-08-23T03:56:36.668Z,93910.63
2022-08-23T03:59:07.445Z,93911.13
2022-08-23T04:01:36.598Z,93916.53
2022-08-23T04:04:05.334Z,93928.19
2022-08-23T04:06:34.063Z,93927.34
2022-08-23T04:09:02.124Z,93936.31
2022-08-23T04:11:31.876Z,93929.53
2022-08-23T04:13:59.989Z,93939.81
2022-08-23T04:16:29.031Z,93930.22
2022-08-23T04:18:57.431Z,93943.72
2022-08-23T04:21:26.123Z,93933.44
2022-08-23T04:23:54.207Z,93942.34
2022-08-23T04:26:23.062Z,93945.31
2022-08-23T04:28:55.613Z,93942.97
2022-08-23T04:31:24.916Z,93950.16
2022-08-23T04:33:53.129Z,93956.97
2022-08-23T04:36:23.421Z,93952.66
2022-08-23T04:38:52.043Z,93957.94
2022-08-23T04:41:38.404Z,93969.09
2022-08-23T04:44:08.103Z,93966.13
2022-08-23T04:46:36.370Z,93957.78
2022-08-23T04:49:05.024Z,93958.56
2022-08-23T04:51:33.071Z,93962.91
2022-08-23T04:54:01.152Z,93955.78
2022-08-23T04:56:29.589Z,93963.56
2022-08-23T04:58:57.989Z,93981.34
2022-08-23T05:01:30.704Z,93964.19
2022-08-23T05:04:00.669Z,93975.47
2022-08-23T05:06:29.680Z,93964.16
2022-08-23T05:08:57.887Z,93962.97
2022-08-23T05:11:29.326Z,93974.03
2022-08-23T05:13:57.684Z,93977.31
2022-08-23T05:16:28.507Z,93980.97
2022-08-23T05:18:59.111Z,93986.31
2022-08-23T05:21:28.457Z,94001.41
2022-08-23T05:23:59.594Z,94007.63
2022-08-23T05:26:28.355Z,94011.72
2022-08-23T05:28:56.622Z,94012.03
2022-08-23T05:31:30.590Z,94006.94
2022-08-23T05:33:59.841Z,94009.41
2022-08-23T05:36:29.113Z,94002.16
2022-08-23T05:38:58.834Z,94002.34
2022-08-23T05:41:33.350Z,94009.13
2022-08-23T05:44:07.629Z,94001.88
2022-08-23T05:46:39.146Z,94011.13
2022-08-23T05:49:07.485Z,94000.06
2022-08-23T05:51:36.705Z,94008.72
2022-08-23T05:54:09.777Z,94001.47
2022-08-23T05:56:41.888Z,94008.94
2022-08-23T05:59:17.665Z,94010.84
2022-08-23T06:01:47.450Z,94021.47
2022-08-23T06:04:19.008Z,94021.94
2022-08-23T06:06:48.811Z,94018.31
2022-08-23T06:09:19.535Z,94028.22
2022-08-23T06:11:50.877Z,94036.81
2022-08-23T06:14:20.598Z,94035.69
2022-08-23T06:16:55.789Z,94039.38
2022-08-23T06:19:25.602Z,94037.34
2022-08-23T06:21:55.953Z,94047.34
2022-08-23T06:24:27.141Z,94063.44
2022-08-23T06:26:57.738Z,94068.34
2022-08-23T06:29:26.720Z,94063.78
2022-08-23T06:31:56.907Z,94057.75
2022-08-23T06:34:27.875Z,94063.44
2022-08-23T06:36:59.757Z,94058.34
2022-08-23T06:39:36.780Z,94061.59
2022-08-23T06:42:34.487Z,94063.53
2022-08-23T06:44:57.321Z,94068.06
2022-08-23T06:47:27.417Z,94074.41
2022-08-23T06:49:58.263Z,94072.69
2022-08-23T06:52:41.685Z,94081.94
2022-08-23T06:55:13.626Z,94077.50
2022-08-23T06:57:43.208Z,94082.59
2022-08-23T07:00:22.108Z,94087.38
2022-08-23T07:02:57.529Z,94085.00
2022-08-23T07:05:27.676Z,94083.16
2022-08-23T07:08:07.448Z,94089.53
2022-08-23T07:10:35.910Z,94096.41
2022-08-23T07:15:50.125Z,94098.13
2022-08-23T07:18:41.207Z,94107.03
2022-08-23T07:21:11.034Z,94098.75
2022-08-23T07:23:42.006Z,94102.03
2022-08-23T07:26:17.444Z,94109.41
2022-08-23T07:28:47.241Z,94096.09
2022-08-23T07:31:18.220Z,94105.34
2022-08-23T07:33:48.596Z,94096.94
2022-08-23T07:36:19.436Z,94105.31
2022-08-23T07:38:51.458Z,94111.41
2022-08-23T07:41:20.597Z,94111.63
2022-08-23T07:43:49.038Z,94107.72
2022-08-23T07:46:37.411Z,94113.72
2022-08-23T07:49:08.314Z,94106.88
2022-08-23T07:51:39.284Z,94108.47
2022-08-23T07:54:11.396Z,94093.81
2022-08-23T07:56:43.328Z,94113.06
2022-08-23T07:59:13.441Z,94117.38
2022-08-23T08:01:45.870Z,94113.47
2022-08-23T08:04:16.294Z,94109.84
2022-08-23T08:06:59.793Z,94127.38
2022-08-23T08:09:39.734Z,94130.09
2022-08-23T08:12:17.638Z,94122.97
2022-08-23T08:17:48.274Z,94135.19
2022-08-23T08:20:24.571Z,94146.09
2022-08-23T08:22:58.612Z,94148.22
2022-08-23T08:25:42.253Z,94137.34
2022-08-23T08:28:15.945Z,94155.44
2022-08-23T08:30:48.779Z,94152.25
2022-08-23T08:36:34.164Z,94161.41
2022-08-23T08:39:07.259Z,94160.06
2022-08-23T08:42:05.418Z,94167.97
2022-08-23T08:44:42.627Z,94163.94
2022-08-23T08:47:19.141Z,94153.91
2022-08-23T08:53:05.714Z,94141.59
2022-08-23T08:55:40.993Z,94139.22
2022-08-23T08:58:17.419Z,94142.88
2022-08-23T09:00:47.385Z,94131.34
2022-08-23T09:03:28.899Z,94123.88
2022-08-23T09:06:26.913Z,94126.56
2022-08-23T09:09:11.897Z,94116.69
2022-08-23T09:11:58.381Z,94110.69
2022-08-23T09:14:43.396Z,94122.91
2022-08-23T09:17:22.992Z,94105.78
2022-08-23T09:19:54.539Z,94108.06
2022-08-23T09:25:44.157Z,94113.59
2022-08-23T09:28:16.862Z,94121.03
2022-08-23T09:30:58.215Z,94131.38
2022-08-23T09:33:38.249Z,94125.59
2022-08-23T09:36:16.653Z,94112.63
2022-08-23T09:38:54.831Z,94123.22
2022-08-23T09:41:29.665Z,94127.44
2022-08-23T09:44:03.139Z,94127.47
2022-08-23T09:46:36.160Z,94122.09
2022-08-23T09:49:31.073Z,94135.41
2022-08-23T09:52:03.429Z,94138.25
2022-08-23T09:54:35.714Z,94148.03
2022-08-23T09:57:10.241Z,94150.66
2022-08-23T09:59:44.641Z,94148.25
2022-08-23T10:02:27.219Z,94165.44
2022-08-23T10:05:03.094Z,94164.84
2022-08-23T10:07:45.671Z,94168.38
2022-08-23T10:10:23.929Z,94178.19
2022-08-23T10:12:59.445Z,94171.75
2022-08-23T10:15:42.110Z,94175.59
2022-08-23T10:18:24.318Z,94183.25
2022-08-23T10:21:00.733Z,94192.81
2022-08-23T10:23:41.117Z,94170.75
2022-08-23T10:26:19.761Z,94187.75
2022-08-23T10:29:14.391Z,94184.56
2022-08-23T10:31:53.952Z,94184.84
2022-08-23T10:34:46.006Z,94182.53
2022-08-23T10:37:48.414Z,94173.25
2022-08-23T10:40:24.552Z,94171.69
2022-08-23T10:43:21.074Z,94178.16
2022-08-23T10:48:51.679Z,94166.81
2022-08-23T10:51:31.474Z,94167.97
2022-08-23T10:54:06.614Z,94168.19
2022-08-23T10:56:44.459Z,94169.25
2022-08-23T10:59:24.224Z,94164.50
2022-08-23T11:02:01.793Z,94164.72
2022-08-23T11:04:38.388Z,94171.66
2022-08-23T11:07:21.108Z,94169.81
2022-08-23T11:09:55.226Z,94168.53
2022-08-23T11:12:31.747Z,94164.94
2022-08-23T11:15:15.802Z,94172.56
2022-08-23T11:18:00.613Z,94177.81
2022-08-23T11:21:05.392Z,94171.09
2022-08-23T11:23:47.248Z,94172.69
2022-08-23T11:27:07.135Z,94169.91
2022-08-23T11:29:41.458Z,94164.03
2022-08-23T11:32:33.585Z,94170.06
2022-08-23T11:35:43.245Z,94166.59
2022-08-23T11:38:12.919Z,94163.72
2022-08-23T11:43:50.231Z,94150.13
2022-08-23T11:46:36.061Z,94149.47
2022-08-23T11:49:50.848Z,94151.06
2022-08-23T11:52:36.561Z,94154.19
2022-08-23T11:55:31.980Z,94158.69
2022-08-23T11:58:17.221Z,94158.41
2022-08-23T12:01:06.904Z,94150.88
2022-08-23T12:03:45.808Z,94152.56
2022-08-23T12:06:40.699Z,94145.34
2022-08-23T12:09:30.142Z,94146.56
2022-08-23T12:12:32.469Z,94152.41
2022-08-23T12:15:07.504Z,94147.72
2022-08-23T12:18:14.913Z,94156.34
2022-08-23T12:20:48.450Z,94151.97
2022-08-23T12:23:22.200Z,94153.88
2022-08-23T12:26:11.849Z,94154.44
2022-08-23T12:28:48.575Z,94141.28
2022-08-23T12:31:27.457Z,94135.47
2022-08-23T12:34:24.220Z,94138.34
2022-08-23T12:37:05.444Z,94143.97
2022-08-23T12:39:40.177Z,94143.53
2022-08-23T12:42:15.928Z,94155.06
2022-08-23T12:44:46.479Z,94137.44
2022-08-23T12:47:19.831Z,94144.50
2022-08-23T12:50:00.511Z,94134.44
2022-08-23T12:52:35.209Z,94130.63
2022-08-23T12:55:06.981Z,94129.78
2022-08-23T12:57:42.399Z,94128.41
2022-08-23T13:00:20.375Z,94130.75
2022-08-23T13:02:56.021Z,94127.41
2022-08-23T13:05:52.969Z,94130.59
2022-08-23T13:08:33.618Z,94123.72
2022-08-23T13:11:08.118Z,94122.94
2022-08-23T13:13:42.735Z,94111.56
2022-08-23T13:16:31.427Z,94123.94
2022-08-23T13:19:23.910Z,94118.69
2022-08-23T13:22:11.842Z,94123.75
2022-08-23T13:24:44.136Z,94116.06
2022-08-23T13:27:28.885Z,94109.81
2022-08-23T13:30:24.743Z,94101.06
2022-08-23T13:33:00.085Z,94109.56
2022-08-23T13:38:39.801Z,94101.88
2022-08-23T13:50:35.891Z,94095.91
2022-08-23T13:53:15.847Z,94097.78
2022-08-23T13:55:48.645Z,94085.94
2022-08-23T13:58:30.372Z,94078.66
2022-08-23T14:01:00.864Z,94048.13
2022-08-23T14:03:36.009Z,94032.19
2022-08-23T14:06:08.635Z,94018.66
2022-08-23T14:08:36.961Z,94007.88
2022-08-23T14:11:06.229Z,94026.25
2022-08-23T14:13:37.790Z,94007.13
2022-08-23T14:21:48.926Z,94022.94
2022-08-23T14:24:22.396Z,94015.75
2022-08-23T14:27:00.663Z,94007.41
2022-08-23T14:29:30.227Z,94015.34
2022-08-23T14:32:00.330Z,94020.63
2022-08-23T14:34:30.350Z,94029.28
2022-08-23T14:39:49.501Z,94022.50
2022-08-23T14:42:21.539Z,94025.41
2022-08-23T14:44:50.833Z,94036.59
2022-08-23T14:47:19.868Z,94048.13
2022-08-23T14:49:53.251Z,94053.53
2022-08-23T14:52:24.934Z,94060.16
2022-08-23T14:54:53.358Z,94055.25
2022-08-23T14:57:25.911Z,94057.53
2022-08-23T14:59:54.303Z,94044.38
2022-08-23T15:02:26.002Z,94047.22
2022-08-23T15:04:54.825Z,94033.53
2022-08-23T15:07:25.393Z,94040.28
2022-08-23T15:09:55.691Z,94054.97
2022-08-23T15:15:16.266Z,94049.13
2022-08-23T15:17:48.859Z,94045.31
2022-08-23T15:20:17.207Z,94038.94
2022-08-23T15:22:55.464Z,94040.94
2022-08-23T15:25:25.956Z,94041.53
2022-08-23T15:27:54.896Z,94041.06
2022-08-23T15:30:25.596Z,94037.28
2022-08-23T15:33:02.471Z,94043.41
2022-08-23T15:35:41.780Z,94031.41
2022-08-23T15:38:13.364Z,94027.41
2022-08-23T15:40:42.089Z,94022.31
2022-08-23T15:43:10.658Z,94014.69
2022-08-23T15:45:41.001Z,94008.13
2022-08-23T15:48:21.308Z,94023.94
2022-08-23T15:50:50.451Z,94023.75
2022-08-23T15:53:23.528Z,94027.72
2022-08-23T15:55:54.357Z,94028.03
2022-08-23T15:58:25.162Z,94038.22
2022-08-23T16:00:54.910Z,94043.06
2022-08-23T16:03:25.205Z,94050.22
2022-08-23T16:08:43.280Z,94045.47
2022-08-23T16:11:15.102Z,94040.63
2022-08-23T16:13:46.196Z,94054.66
2022-08-23T16:16:19.351Z,94059.59
2022-08-23T16:18:48.925Z,94064.03
2022-08-23T16:21:17.495Z,94060.03
2022-08-23T16:23:49.143Z,94062.78
2022-08-23T16:26:21.542Z,94077.91
2022-08-23T16:28:53.925Z,94051.97
2022-08-23T16:31:22.947Z,94062.34
2022-08-23T16:34:10.817Z,94072.94
2022-08-23T16:36:41.165Z,94075.22
2022-08-23T16:39:11.933Z,94071.06
2022-08-23T16:41:41.054Z,94081.47
2022-08-23T16:44:10.253Z,94074.19
2022-08-23T16:46:41.304Z,94079.53
2022-08-23T16:49:10.545Z,94071.63
2022-08-23T16:51:40.965Z,94069.13
2022-08-23T16:54:10.640Z,94070.41
2022-08-23T16:56:41.064Z,94077.09
2022-08-23T16:59:12.787Z,94064.22
2022-08-23T17:01:50.244Z,94069.38
2022-08-23T17:04:20.282Z,94079.47
2022-08-23T17:06:48.668Z,94071.28
2022-08-23T17:09:18.339Z,94082.47
2022-08-23T17:11:46.560Z,94086.94
2022-08-23T17:14:15.071Z,94102.34
2022-08-23T17:16:44.245Z,94109.41
2022-08-23T17:19:14.978Z,94127.28
2022-08-23T17:21:45.932Z,94124.00
2022-08-23T17:24:14.370Z,94137.69
2022-08-23T17:26:44.515Z,94136.03
2022-08-23T17:29:13.076Z,94129.13
2022-08-23T17:31:43.448Z,94140.47
2022-08-23T17:34:12.846Z,94137.56
2022-08-23T17:36:49.185Z,94135.88
2022-08-23T17:39:24.925Z,94143.28
2022-08-23T17:41:54.741Z,94140.59
2022-08-23T17:44:23.220Z,94152.72
2022-08-23T17:46:53.102Z,94156.09
2022-08-23T17:49:21.855Z,94163.75
2022-08-23T17:51:52.848Z,94164.25
2022-08-23T17:54:22.454Z,94160.72
2022-08-23T17:56:51.031Z,94159.13
2022-08-23T17:59:22.432Z,94158.88
2022-08-23T18:01:52.238Z,94167.41
2022-08-23T18:04:21.274Z,94157.28
2022-08-23T18:06:50.497Z,94157.53
2022-08-23T18:09:19.249Z,94167.75
2022-08-23T18:11:48.690Z,94164.44
2022-08-23T18:14:18.080Z,94167.16
2022-08-23T18:16:47.991Z,94165.81
2022-08-23T18:19:17.119Z,94173.00
2022-08-23T18:21:46.770Z,94175.41
2022-08-23T18:24:15.669Z,94162.31
2022-08-23T18:27:01.663Z,94171.06
2022-08-23T18:29:32.793Z,94176.69
2022-08-23T18:32:02.647Z,94174.13
2022-08-23T18:34:33.697Z,94188.41
2022-08-23T18:37:02.166Z,94195.16
2022-08-23T18:39:32.307Z,94193.09
2022-08-23T18:42:01.112Z,94187.03
2022-08-23T18:44:30.059Z,94163.25
2022-08-23T18:46:58.353Z,94161.84
2022-08-23T18:49:28.100Z,94165.31
2022-08-23T18:51:56.627Z,94159.28
2022-08-23T18:54:25.120Z,94171.84
2022-08-23T18:56:53.286Z,94170.78
2022-08-23T18:59:22.364Z,94162.06
2022-08-23T19:01:50.716Z,94167.31
2022-08-23T19:04:19.434Z,94151.16
2022-08-23T19:06:49.377Z,94143.09
2022-08-23T19:09:24.267Z,94144.91
2022-08-23T19:11:52.452Z,94149.53
2022-08-23T19:14:22.464Z,94158.22
2022-08-23T19:16:52.968Z,94157.31
2022-08-23T19:19:21.822Z,94149.19
2022-08-23T19:21:51.570Z,94143.81
2022-08-23T19:24:21.062Z,94128.72
2022-08-23T19:26:49.832Z,94132.25
2022-08-23T19:29:33.433Z,94139.34
2022-08-23T19:32:05.888Z,94138.19
2022-08-23T19:34:36.202Z,94149.53
2022-08-23T19:37:18.591Z,94146.91
2022-08-23T19:39:52.117Z,94147.22
2022-08-23T19:42:21.048Z,94148.69
2022-08-23T19:44:50.938Z,94153.06
2022-08-23T19:47:21.154Z,94168.44
2022-08-23T19:49:51.152Z,94174.25
2022-08-23T19:52:22.610Z,94166.00
2022-08-23T19:54:51.762Z,94167.47
2022-08-23T19:57:22.949Z,94172.28
2022-08-23T19:59:51.074Z,94185.44
2022-08-23T20:02:19.858Z,94184.63
2022-08-23T20:04:49.595Z,94186.34
2022-08-23T20:07:17.734Z,94193.22
2022-08-23T20:09:47.514Z,94196.41
2022-08-23T20:12:17.537Z,94208.53
2022-08-23T20:14:49.506Z,94222.50
2022-08-23T20:17:18.280Z,94223.66
2022-08-23T20:19:47.055Z,94229.03
2022-08-23T20:22:41.337Z,94234.50
2022-08-23T20:25:11.506Z,94221.94
2022-08-23T20:27:39.893Z,94234.63
2022-08-23T20:30:10.021Z,94223.31
2022-08-23T20:32:39.820Z,94215.19
2022-08-23T20:35:11.288Z,94205.56
2022-08-23T20:37:40.448Z,94216.84
2022-08-23T20:40:12.412Z,94216.09
2022-08-23T20:42:41.345Z,94220.66
2022-08-23T20:45:11.678Z,94221.81
2022-08-23T20:47:41.353Z,94208.00
2022-08-23T20:50:10.259Z,94222.03
2022-08-23T20:52:38.341Z,94228.81
2022-08-23T20:55:10.884Z,94226.38
2022-08-23T20:57:40.602Z,94231.50
2022-08-23T21:00:12.636Z,94223.50
2022-08-23T21:02:41.389Z,94238.97
2022-08-23T21:05:10.646Z,94230.63
2022-08-23T21:07:38.832Z,94240.00
2022-08-23T21:10:07.785Z,94238.19
2022-08-23T21:15:21.404Z,94242.84
2022-08-23T21:17:49.832Z,94236.34
2022-08-23T21:20:20.181Z,94246.50
2022-08-23T21:22:48.312Z,94240.69
2022-08-23T21:25:17.445Z,94241.69
2022-08-23T21:27:46.758Z,94232.00
2022-08-23T21:30:16.179Z,94228.75
2022-08-23T21:32:45.759Z,94228.22
2022-08-23T21:35:14.970Z,94235.19
2022-08-23T21:37:43.362Z,94235.41
2022-08-23T21:40:13.150Z,94225.25
2022-08-23T21:45:28.388Z,94234.84
2022-08-23T21:47:58.733Z,94236.47
2022-08-23T21:50:31.004Z,94227.78
2022-08-23T21:52:59.134Z,94226.16
2022-08-23T21:55:36.274Z,94226.97
2022-08-23T21:58:05.462Z,94224.56
2022-08-23T22:00:34.481Z,94229.59
2022-08-23T22:03:06.550Z,94230.75
2022-08-23T22:05:39.441Z,94229.38
2022-08-23T22:08:07.568Z,94240.94
2022-08-23T22:10:38.140Z,94247.00
2022-08-23T22:13:12.590Z,94255.09
2022-08-23T22:15:40.774Z,94261.50
2022-08-23T22:18:10.376Z,94259.88
2022-08-23T22:20:38.467Z,94255.22
2022-08-23T22:23:06.460Z,94257.97
2022-08-23T22:25:34.633Z,94256.22
2022-08-23T22:28:03.125Z,94249.00
2022-08-23T22:30:31.193Z,94254.38
2022-08-23T22:32:59.252Z,94265.97
2022-08-23T22:35:28.672Z,94253.25
2022-08-23T22:38:13.273Z,94255.44
2022-08-23T22:40:47.457Z,94239.19
2022-08-23T22:43:15.673Z,94242.84
2022-08-23T22:45:50.603Z,94244.59
2022-08-23T22:48:19.152Z,94246.19
2022-08-23T22:50:48.981Z,94246.28
2022-08-23T22:53:17.602Z,94242.75
2022-08-23T22:55:51.504Z,94237.03
2022-08-23T22:58:19.649Z,94223.66
2022-08-23T23:00:47.955Z,94215.97
2022-08-23T23:03:16.216Z,94223.06
2022-08-23T23:05:44.403Z,94220.44
2022-08-23T23:08:29.022Z,94216.78
2022-08-23T23:10:59.135Z,94208.66
2022-08-23T23:13:29.368Z,94208.44
2022-08-23T23:15:58.267Z,94196.78
2022-08-23T23:18:27.693Z,94199.41
2022-08-23T23:20:58.453Z,94191.16
2022-08-23T23:23:29.492Z,94185.56
2022-08-23T23:25:58.610Z,94178.22
2022-08-23T23:28:27.669Z,94183.41
2022-08-23T23:30:57.635Z,94173.00
2022-08-23T23:33:26.023Z,94164.63
2022-08-23T23:35:54.066Z,94168.09
2022-08-23T23:38:22.335Z,94160.44
2022-08-23T23:40:52.026Z,94161.53
2022-08-23T23:43:20.128Z,94156.88
2022-08-23T23:45:48.263Z,94160.28
2022-08-23T23:48:16.461Z,94161.09
2022-08-23T23:50:45.572Z,94155.25
2022-08-23T23:53:15.259Z,94147.81
2022-08-23T23:55:44.253Z,94153.41
2022-08-23T23:58:13.703Z,94139.25
